createdAt,value
2022-10-25T00:01:15.375Z,1.40
2022-10-25T00:07:31.251Z,1.30
2022-10-25T00:10:37.861Z,1.27
2022-10-25T00:13:42.562Z,1.40
2022-10-25T00:16:47.366Z,1.33
2022-10-25T00:19:53.619Z,2.65
2022-10-25T00:22:59.070Z,1.50
2022-10-25T00:26:04.270Z,1.50
2022-10-25T00:29:10.615Z,1.52
2022-10-25T00:32:15.589Z,1.50
2022-10-25T00:35:21.886Z,1.42
2022-10-25T00:38:26.578Z,1.50
2022-10-25T00:41:33.473Z,1.30
2022-10-25T00:44:56.766Z,1.90
2022-10-25T00:48:05.008Z,1.40
2022-10-25T00:51:11.751Z,1.38
2022-10-25T00:54:20.154Z,1.83
2022-10-25T00:57:29.492Z,1.80
2022-10-25T01:00:34.431Z,4.32
2022-10-25T01:03:40.608Z,2.00
2022-10-25T01:06:50.463Z,2.00
2022-10-25T01:09:55.700Z,2.30
2022-10-25T01:13:02.235Z,2.08
2022-10-25T01:16:15.683Z,2.47
2022-10-25T01:19:45.294Z,2.28
2022-10-25T01:22:59.547Z,2.45
2022-10-25T01:26:44.222Z,2.95
2022-10-25T01:30:09.687Z,3.10
2022-10-25T01:33:23.801Z,3.28
2022-10-25T01:36:38.802Z,3.22
2022-10-25T01:39:49.106Z,3.45
2022-10-25T01:43:01.747Z,4.55
2022-10-25T01:46:13.539Z,4.32
2022-10-25T01:49:25.718Z,5.45
2022-10-25T01:52:30.885Z,9.57
2022-10-25T01:55:40.553Z,10.30
2022-10-25T01:58:53.353Z,12.35
2022-10-25T02:02:05.415Z,20.65
2022-10-25T02:05:19.006Z,20.17
2022-10-25T02:08:36.839Z,22.40
2022-10-25T02:11:41.666Z,26.45
2022-10-25T02:14:55.526Z,24.10
2022-10-25T02:18:02.147Z,33.95
2022-10-25T02:21:08.722Z,30.90
2022-10-25T02:24:18.401Z,31.10
2022-10-25T02:27:24.159Z,33.00
2022-10-25T02:30:29.413Z,31.73
2022-10-25T02:33:34.279Z,30.60
2022-10-25T02:36:40.327Z,37.10
2022-10-25T02:39:46.043Z,30.75
2022-10-25T02:42:50.969Z,28.75
2022-10-25T02:45:55.599Z,29.25
2022-10-25T02:49:00.242Z,29.45
2022-10-25T02:52:06.739Z,28.23
2022-10-25T02:55:12.106Z,27.77
2022-10-25T02:58:17.405Z,25.92
2022-10-25T03:01:22.380Z,29.45
2022-10-25T03:04:27.126Z,25.27
2022-10-25T03:07:33.231Z,26.70
2022-10-25T03:10:38.763Z,24.77
2022-10-25T03:13:43.460Z,21.30
2022-10-25T03:19:58.002Z,28.08
2022-10-25T03:23:04.149Z,25.25
2022-10-25T03:26:09.285Z,22.08
2022-10-25T03:29:16.312Z,26.35
2022-10-25T03:32:20.991Z,25.23
2022-10-25T03:35:26.116Z,29.38
2022-10-25T03:38:32.156Z,22.85
2022-10-25T03:41:37.121Z,22.15
2022-10-25T03:44:42.092Z,22.95
2022-10-25T03:47:47.190Z,20.77
2022-10-25T03:50:52.391Z,20.52
2022-10-25T03:53:58.942Z,24.25
2022-10-25T03:57:04.289Z,21.23
2022-10-25T04:00:11.922Z,18.55
2022-10-25T04:03:17.379Z,18.42
2022-10-25T04:06:22.166Z,21.90
2022-10-25T04:09:28.452Z,18.80
2022-10-25T04:12:33.162Z,19.58
2022-10-25T04:15:39.370Z,16.42
2022-10-25T04:18:44.118Z,15.90
2022-10-25T04:21:48.812Z,18.25
2022-10-25T04:24:54.751Z,17.80
2022-10-25T04:28:00.409Z,18.33
2022-10-25T04:31:05.622Z,17.10
2022-10-25T04:34:12.018Z,18.52
2022-10-25T04:37:16.967Z,19.23
2022-10-25T04:40:24.901Z,20.83
2022-10-25T04:43:30.691Z,20.02
2022-10-25T04:46:35.389Z,21.02
2022-10-25T04:49:40.463Z,20.15
2022-10-25T04:52:45.343Z,16.90
2022-10-25T04:55:58.588Z,21.60
2022-10-25T04:59:03.306Z,23.45
2022-10-25T05:02:08.176Z,19.73
2022-10-25T05:05:12.858Z,20.40
2022-10-25T05:08:18.606Z,20.33
2022-10-25T05:11:26.184Z,24.33
2022-10-25T05:14:30.862Z,17.95
2022-10-25T05:17:35.587Z,20.17
2022-10-25T05:20:40.405Z,19.83
2022-10-25T05:23:45.521Z,22.20
2022-10-25T05:26:51.896Z,18.50
2022-10-25T05:29:56.565Z,21.08
2022-10-25T05:33:04.166Z,21.67
2022-10-25T05:36:10.854Z,23.48
2022-10-25T05:39:15.614Z,26.65
2022-10-25T05:42:21.774Z,26.67
2022-10-25T05:45:26.855Z,26.95
2022-10-25T05:48:32.560Z,23.50
2022-10-25T05:51:37.651Z,22.42
2022-10-25T05:54:43.405Z,23.52
2022-10-25T05:57:53.283Z,26.50
2022-10-25T06:01:01.907Z,27.27
2022-10-25T06:04:08.031Z,25.65
2022-10-25T06:07:12.934Z,30.20
2022-10-25T06:10:18.286Z,26.95
2022-10-25T06:13:24.426Z,23.83
2022-10-25T06:16:29.595Z,24.48
2022-10-25T06:19:34.219Z,21.70
2022-10-25T06:22:39.135Z,21.92
2022-10-25T06:25:43.847Z,24.45
2022-10-25T06:28:53.171Z,22.13
2022-10-25T06:31:57.831Z,26.08
2022-10-25T06:35:02.866Z,25.70
2022-10-25T06:38:07.811Z,23.85
2022-10-25T06:41:17.916Z,23.30
2022-10-25T06:44:23.999Z,24.27
2022-10-25T06:47:28.923Z,20.50
2022-10-25T06:50:33.692Z,24.88
2022-10-25T06:53:40.075Z,19.17
2022-10-25T06:56:44.739Z,17.23
2022-10-25T06:59:50.815Z,18.55
2022-10-25T07:02:56.606Z,19.17
2022-10-25T07:06:01.763Z,15.88
2022-10-25T07:09:09.319Z,17.05
2022-10-25T07:12:14.619Z,20.30
2022-10-25T07:15:21.717Z,17.27
2022-10-25T07:18:26.451Z,16.60
2022-10-25T07:21:33.543Z,16.05
2022-10-25T07:24:38.170Z,14.70
2022-10-25T07:27:42.854Z,16.20
2022-10-25T07:30:49.404Z,15.38
2022-10-25T07:33:55.763Z,11.15
2022-10-25T07:37:01.022Z,20.15
2022-10-25T07:40:07.480Z,15.05
2022-10-25T07:43:12.819Z,19.65
2022-10-25T07:46:19.295Z,19.50
2022-10-25T07:49:24.239Z,18.65
2022-10-25T07:52:29.037Z,17.42
2022-10-25T07:55:33.667Z,15.10
2022-10-25T07:58:38.315Z,18.65
2022-10-25T08:01:44.410Z,19.00
2022-10-25T08:04:51.085Z,17.55
2022-10-25T08:07:58.514Z,19.23
2022-10-25T08:11:08.116Z,20.05
2022-10-25T08:14:13.144Z,21.92
2022-10-25T08:17:19.328Z,18.52
2022-10-25T08:20:43.082Z,19.23
2022-10-25T08:23:48.663Z,21.17
2022-10-25T08:26:53.361Z,20.33
2022-10-25T08:29:58.052Z,19.55
2022-10-25T08:33:06.448Z,19.88
2022-10-25T08:36:14.331Z,21.50
2022-10-25T08:39:19.088Z,22.48
2022-10-25T08:42:30.163Z,22.65
2022-10-25T08:45:39.132Z,16.85
2022-10-25T08:48:49.679Z,20.08
2022-10-25T08:51:55.314Z,20.25
2022-10-25T08:55:05.537Z,21.08
2022-10-25T08:58:19.928Z,18.10
2022-10-25T09:01:38.173Z,19.42
2022-10-25T09:04:44.619Z,15.50
2022-10-25T09:08:05.294Z,13.98
2022-10-25T09:11:21.299Z,13.73
2022-10-25T09:14:33.743Z,9.77
2022-10-25T09:17:48.790Z,12.63
2022-10-25T09:20:55.310Z,12.68
2022-10-25T09:24:03.046Z,11.30
2022-10-25T09:27:09.760Z,11.00
2022-10-25T09:30:15.099Z,12.77
2022-10-25T09:33:23.044Z,13.45
2022-10-25T09:36:32.819Z,10.07
2022-10-25T09:39:41.782Z,13.20
2022-10-25T09:42:52.580Z,8.82
2022-10-25T09:46:00.548Z,13.43
2022-10-25T09:49:15.562Z,9.30
2022-10-25T09:52:29.093Z,10.25
2022-10-25T09:55:40.093Z,9.15
2022-10-25T09:58:47.192Z,7.10
2022-10-25T10:01:52.203Z,6.63
2022-10-25T10:04:56.989Z,9.20
2022-10-25T10:08:03.005Z,14.23
2022-10-25T10:11:08.371Z,15.07
2022-10-25T10:14:19.622Z,11.50
2022-10-25T10:17:25.056Z,14.73
2022-10-25T10:20:30.073Z,15.73
2022-10-25T10:23:45.491Z,12.80
2022-10-25T10:26:55.441Z,14.35
2022-10-25T10:30:02.414Z,10.18
2022-10-25T10:33:09.604Z,10.63
2022-10-25T10:36:27.614Z,10.38
2022-10-25T10:39:33.630Z,11.23
2022-10-25T10:42:41.313Z,12.23
2022-10-25T10:45:51.347Z,13.73
2022-10-25T10:48:57.303Z,11.63
2022-10-25T10:52:02.967Z,10.32
2022-10-25T10:55:19.224Z,11.50
2022-10-25T10:58:26.823Z,12.18
2022-10-25T11:01:34.081Z,8.30
2022-10-25T11:04:49.654Z,12.63
2022-10-25T11:07:57.272Z,13.93
2022-10-25T11:11:17.829Z,10.60
2022-10-25T11:14:22.599Z,8.95
2022-10-25T11:17:30.855Z,17.23
2022-10-25T11:20:48.721Z,6.45
2022-10-25T11:24:07.343Z,8.38
2022-10-25T11:27:20.604Z,10.25
2022-10-25T11:30:26.631Z,7.80
2022-10-25T11:33:44.478Z,8.82
2022-10-25T11:36:59.974Z,4.82
2022-10-25T11:40:14.760Z,10.23
2022-10-25T11:43:35.502Z,9.55
2022-10-25T11:46:47.604Z,9.93
2022-10-25T11:50:03.756Z,11.55
2022-10-25T11:53:30.910Z,3.75
2022-10-25T11:56:42.558Z,6.18
2022-10-25T12:00:00.829Z,9.18
2022-10-25T12:03:26.775Z,9.70
2022-10-25T12:06:35.511Z,8.75
2022-10-25T12:09:50.861Z,7.20
2022-10-25T12:12:58.267Z,5.45
2022-10-25T12:16:07.502Z,9.00
2022-10-25T12:19:19.479Z,5.03
2022-10-25T12:22:27.610Z,11.52
2022-10-25T12:25:36.509Z,3.60
2022-10-25T12:28:46.823Z,6.82
2022-10-25T12:31:57.944Z,3.67
2022-10-25T12:35:07.007Z,5.57
2022-10-25T12:38:18.950Z,6.72
2022-10-25T12:41:27.190Z,5.93
2022-10-25T12:44:58.753Z,2.92
2022-10-25T12:48:16.822Z,8.00
2022-10-25T12:51:38.025Z,2.80
2022-10-25T12:55:16.882Z,5.93
2022-10-25T12:58:35.244Z,4.47
2022-10-25T13:02:03.926Z,7.45
2022-10-25T13:05:31.918Z,5.57
2022-10-25T13:08:40.091Z,7.63
2022-10-25T13:11:51.601Z,3.17
2022-10-25T13:14:59.357Z,2.55
2022-10-25T13:18:07.010Z,5.50
2022-10-25T13:21:16.313Z,5.07
2022-10-25T13:24:39.959Z,4.38
2022-10-25T13:28:21.330Z,3.33
2022-10-25T13:31:49.605Z,3.63
2022-10-25T13:34:55.770Z,5.45
2022-10-25T13:38:07.995Z,7.55
2022-10-25T13:41:16.298Z,10.10
2022-10-25T13:44:22.270Z,5.85
2022-10-25T13:47:36.703Z,8.32
2022-10-25T13:50:45.646Z,4.78
2022-10-25T13:53:53.331Z,6.65
2022-10-25T13:56:58.179Z,8.70
2022-10-25T14:00:03.891Z,8.00
2022-10-25T14:03:35.919Z,5.05
2022-10-25T14:06:42.477Z,3.85
2022-10-25T14:09:53.246Z,7.10
2022-10-25T14:13:16.147Z,6.32
2022-10-25T14:16:28.213Z,12.27
2022-10-25T14:19:38.386Z,4.50
2022-10-25T14:22:44.820Z,4.28
2022-10-25T14:25:57.678Z,8.27
2022-10-25T14:29:15.268Z,6.65
2022-10-25T14:32:22.094Z,5.95
2022-10-25T14:35:32.172Z,8.38
2022-10-25T14:38:51.227Z,7.05
2022-10-25T14:41:59.800Z,11.25
2022-10-25T14:45:04.842Z,11.43
2022-10-25T14:48:16.230Z,13.48
2022-10-25T14:51:23.062Z,7.65
2022-10-25T14:54:31.170Z,9.07
2022-10-25T14:57:38.027Z,8.07
2022-10-25T15:00:54.693Z,18.80
2022-10-25T15:04:01.343Z,10.70
2022-10-25T15:07:07.385Z,8.50
2022-10-25T15:10:40.740Z,10.02
2022-10-25T15:13:49.382Z,11.40
2022-10-25T15:17:03.406Z,13.88
2022-10-25T15:20:31.085Z,12.23
2022-10-25T15:23:36.530Z,9.23
2022-10-25T15:26:53.845Z,11.93
2022-10-25T15:30:00.223Z,12.48
2022-10-25T15:33:07.099Z,10.75
2022-10-25T15:36:23.216Z,8.57
2022-10-25T15:39:31.122Z,13.73
2022-10-25T15:42:35.865Z,10.63
2022-10-25T15:45:42.574Z,10.35
2022-10-25T15:48:48.723Z,5.85
2022-10-25T15:51:55.795Z,8.60
2022-10-25T15:55:00.498Z,10.48
2022-10-25T15:58:09.708Z,14.38
2022-10-25T16:01:17.320Z,8.73
2022-10-25T16:04:22.482Z,8.35
2022-10-25T16:07:27.220Z,11.52
2022-10-25T16:10:33.141Z,10.75
2022-10-25T16:13:39.920Z,8.32
2022-10-25T16:16:46.251Z,8.95
2022-10-25T16:19:50.977Z,9.77
2022-10-25T16:22:56.255Z,9.57
2022-10-25T16:26:01.345Z,10.73
2022-10-25T16:29:06.432Z,13.68
2022-10-25T16:32:14.746Z,9.98
2022-10-25T16:35:24.142Z,7.22
2022-10-25T16:38:29.444Z,6.00
2022-10-25T16:41:34.213Z,14.00
2022-10-25T16:44:39.109Z,10.55
2022-10-25T16:47:45.180Z,12.65
2022-10-25T16:50:49.903Z,9.88
2022-10-25T16:53:54.900Z,9.23
2022-10-25T16:56:59.522Z,11.13
2022-10-25T17:00:05.278Z,9.20
2022-10-25T17:03:12.663Z,6.82
2022-10-25T17:06:39.651Z,7.95
2022-10-25T17:09:43.111Z,11.13
2022-10-25T17:12:50.830Z,7.10
2022-10-25T17:15:56.362Z,7.97
2022-10-25T17:19:04.204Z,9.45
2022-10-25T17:22:09.459Z,5.85
2022-10-25T17:25:14.231Z,3.53
2022-10-25T17:28:18.922Z,8.10
2022-10-25T17:31:23.858Z,21.58
2022-10-25T17:34:31.834Z,6.32
2022-10-25T17:37:36.605Z,7.80
2022-10-25T17:40:42.074Z,8.73
2022-10-25T17:43:48.584Z,9.40
2022-10-25T17:46:55.534Z,7.60
2022-10-25T17:50:03.472Z,11.63
2022-10-25T17:53:10.678Z,5.03
2022-10-25T17:56:17.481Z,8.52
2022-10-25T17:59:22.135Z,8.05
2022-10-25T18:02:26.989Z,6.25
2022-10-25T18:05:33.285Z,6.22
2022-10-25T18:08:38.611Z,9.00
2022-10-25T18:11:44.627Z,7.40
2022-10-25T18:14:53.338Z,7.28
2022-10-25T18:18:00.420Z,6.85
2022-10-25T18:21:08.006Z,8.00
2022-10-25T18:24:15.047Z,3.67
2022-10-25T18:27:20.883Z,6.07
2022-10-25T18:30:26.441Z,3.75
2022-10-25T18:33:32.343Z,7.13
2022-10-25T18:36:38.515Z,10.02
2022-10-25T18:39:43.176Z,7.22
2022-10-25T18:42:48.242Z,7.18
2022-10-25T18:45:57.782Z,6.93
2022-10-25T18:49:02.506Z,4.68
2022-10-25T18:52:09.214Z,4.45
2022-10-25T18:55:15.255Z,5.65
2022-10-25T18:58:20.554Z,2.95
2022-10-25T19:01:28.061Z,3.55
2022-10-25T19:04:32.802Z,5.75
2022-10-25T19:07:38.842Z,5.18
2022-10-25T19:10:43.762Z,3.97
2022-10-25T19:13:51.409Z,5.25
2022-10-25T19:16:56.208Z,4.70
2022-10-25T19:20:00.932Z,5.57
2022-10-25T19:23:07.864Z,4.00
2022-10-25T19:26:15.339Z,6.90
2022-10-25T19:29:19.959Z,5.38
2022-10-25T19:32:24.821Z,3.63
2022-10-25T19:35:29.582Z,3.28
2022-10-25T19:38:36.704Z,6.70
2022-10-25T19:41:41.389Z,11.23
2022-10-25T19:44:46.342Z,3.63
2022-10-25T19:47:52.659Z,2.05
2022-10-25T19:50:57.621Z,3.08
2022-10-25T19:54:03.720Z,1.90
2022-10-25T19:57:08.529Z,4.78
2022-10-25T20:00:15.654Z,3.28
2022-10-25T20:03:20.282Z,2.58
2022-10-25T20:06:27.873Z,1.70
2022-10-25T20:09:33.940Z,8.57
2022-10-25T20:12:38.922Z,1.90
2022-10-25T20:15:51.518Z,2.55
2022-10-25T20:18:56.827Z,1.40
2022-10-25T20:22:01.655Z,1.52
2022-10-25T20:25:09.111Z,1.10
2022-10-25T20:28:15.310Z,0.90
2022-10-25T20:31:20.434Z,1.00
2022-10-25T20:34:27.450Z,0.90
2022-10-25T20:37:32.394Z,2.30
2022-10-25T20:40:38.649Z,0.80
2022-10-25T20:43:47.445Z,1.00
2022-10-25T20:46:52.160Z,0.82
2022-10-25T20:49:57.150Z,1.08
2022-10-25T20:53:10.588Z,1.00
2022-10-25T20:56:17.522Z,0.75
2022-10-25T20:59:22.173Z,0.80
2022-10-25T21:02:27.357Z,0.90
2022-10-25T21:05:32.333Z,5.18
2022-10-25T21:08:38.830Z,1.38
2022-10-25T21:11:44.995Z,1.10
2022-10-25T21:14:50.266Z,1.75
2022-10-25T21:17:54.842Z,1.02
2022-10-25T21:21:02.866Z,0.88
2022-10-25T21:24:09.597Z,0.95
2022-10-25T21:27:16.133Z,0.77
2022-10-25T21:30:20.854Z,0.90
2022-10-25T21:33:25.751Z,1.00
2022-10-25T21:36:30.406Z,1.58
2022-10-25T21:39:35.237Z,2.40
2022-10-25T21:42:41.435Z,0.73
2022-10-25T21:45:46.132Z,2.58
2022-10-25T21:48:51.709Z,0.90
2022-10-25T21:51:56.466Z,1.00
2022-10-25T21:55:01.120Z,0.80
2022-10-25T21:58:07.450Z,1.42
2022-10-25T22:01:14.914Z,5.70
2022-10-25T22:04:19.729Z,6.50
2022-10-25T22:07:24.574Z,1.00
2022-10-25T22:10:29.282Z,4.03
2022-10-25T22:13:35.726Z,0.88
2022-10-25T22:16:41.290Z,1.15
2022-10-25T22:19:46.122Z,2.40
2022-10-25T22:22:51.149Z,0.90
2022-10-25T22:25:56.286Z,0.80
2022-10-25T22:29:02.682Z,0.80
2022-10-25T22:32:07.422Z,0.70
2022-10-25T22:35:13.353Z,2.53
2022-10-25T22:38:18.621Z,0.80
2022-10-25T22:41:25.838Z,0.70
2022-10-25T22:44:31.971Z,0.85
2022-10-25T22:47:36.680Z,0.80
2022-10-25T22:50:42.807Z,1.23
2022-10-25T22:53:47.600Z,1.00
2022-10-25T22:56:52.237Z,0.85
2022-10-25T22:59:58.462Z,1.38
2022-10-25T23:03:03.266Z,0.80
2022-10-25T23:06:11.358Z,0.95
2022-10-25T23:09:16.068Z,0.80
2022-10-25T23:12:20.842Z,0.95
2022-10-25T23:15:26.937Z,2.50
2022-10-25T23:18:32.112Z,0.82
2022-10-25T23:21:36.983Z,0.80
2022-10-25T23:24:42.099Z,3.20
2022-10-25T23:27:47.850Z,1.00
2022-10-25T23:30:54.569Z,1.20
2022-10-25T23:34:00.768Z,1.75
2022-10-25T23:37:05.536Z,1.45
2022-10-25T23:40:13.433Z,0.80
2022-10-25T23:43:18.576Z,0.80
2022-10-25T23:46:24.742Z,0.73
2022-10-25T23:49:29.454Z,0.65
2022-10-25T23:52:34.406Z,0.80
2022-10-25T23:55:40.183Z,0.80
2022-10-25T23:58:44.832Z,0.88
